Time;durP1;ratioP1;P1;durP2;ratioP2;P2;SDS_P1;SDS_P2;PMS_P1;PMS_P2;Temp;Humidity;BMP_temperature;BMP_pressure;BME280_temperature;BME280_humidity;BME280_pressure;Samples;Min_cycle;Max_cycle;Signal;HPM_P1;HPM_P2
2022/10/01 00:02:20;;;;;;;8.60;7.83;;;18.20;99.90;;;;;;5137228;27;20187;-74
2022/10/01 00:04:46;;;;;;;8.90;8.10;;;18.10;99.90;;;;;;5137074;27;20196;-72
2022/10/01 00:07:13;;;;;;;9.57;8.70;;;18.10;99.90;;;;;;5118511;27;20211;-73
2022/10/01 00:09:39;;;;;;;9.07;8.27;;;18.10;99.90;;;;;;5136988;27;20275;-72
2022/10/01 00:12:06;;;;;;;9.87;8.90;;;18.10;99.90;;;;;;5136956;27;20493;-73
2022/10/01 00:14:31;;;;;;;9.97;8.97;;;18.10;99.90;;;;;;5136998;27;20204;-72
2022/10/01 00:16:57;;;;;;;8.70;8.03;;;18.10;99.90;;;;;;5118345;27;20408;-73
2022/10/01 00:19:23;;;;;;;10.47;9.23;;;18.10;99.90;;;;;;5136852;27;20183;-72
2022/10/01 00:21:48;;;;;;;10.10;9.27;;;18.10;99.90;;;;;;5136911;27;20683;-72
2022/10/01 00:24:14;;;;;;;10.67;9.77;;;18.10;99.90;;;;;;5136235;27;20236;-72
2022/10/01 00:26:41;;;;;;;10.03;9.03;;;18.10;99.90;;;;;;5136699;27;20208;-72
2022/10/01 00:29:11;;;;;;;10.77;9.80;;;18.10;99.90;;;;;;5118349;27;20203;-72
2022/10/01 00:31:37;;;;;;;10.23;9.27;;;18.10;99.90;;;;;;5136738;27;20497;-71
2022/10/01 00:34:03;;;;;;;10.63;9.63;;;18.10;99.90;;;;;;5136921;27;20507;-73
2022/10/01 00:36:29;;;;;;;10.07;9.20;;;18.10;99.90;;;;;;5136443;27;20200;-72
2022/10/01 00:38:59;;;;;;;10.33;9.40;;;18.10;99.90;;;;;;5117868;27;20178;-74
2022/10/01 00:41:26;;;;;;;9.90;9.03;;;18.10;99.90;;;;;;5136392;27;20437;-72
2022/10/01 00:43:56;;;;;;;10.07;9.17;;;18.10;99.90;;;;;;5136296;27;20464;-73
2022/10/01 00:46:33;;;;;;;9.80;9.03;;;18.10;99.90;;;;;;5117898;27;20485;-72
2022/10/01 00:49:01;;;;;;;9.07;8.37;;;18.10;99.90;;;;;;5136637;27;20417;-72
2022/10/01 00:51:31;;;;;;;9.43;8.73;;;18.00;99.90;;;;;;5118029;27;20440;-72
2022/10/01 00:54:04;;;;;;;9.30;8.50;;;18.00;99.90;;;;;;5136745;27;20462;-72
2022/10/01 00:56:31;;;;;;;9.10;8.30;;;18.00;99.90;;;;;;5136152;27;20854;-73
2022/10/01 00:58:57;;;;;;;8.30;7.60;;;18.00;99.90;;;;;;5136449;27;20412;-71
2022/10/01 01:01:24;;;;;;;9.00;8.30;;;18.00;99.90;;;;;;5135957;27;20424;-72
2022/10/01 01:03:50;;;;;;;10.17;8.53;;;17.90;99.90;;;;;;5136354;27;20415;-72
2022/10/01 01:06:16;;;;;;;8.60;7.80;;;17.90;99.90;;;;;;5135774;27;20466;-74
2022/10/01 01:08:42;;;;;;;8.97;8.27;;;17.90;99.90;;;;;;5136264;27;20415;-74
2022/10/01 01:11:22;;;;;;;8.70;7.93;;;17.90;99.90;;;;;;5117292;27;20427;-72
2022/10/01 01:13:56;;;;;;;8.60;7.90;;;17.80;99.90;;;;;;5135776;27;20420;-71
2022/10/01 01:16:32;;;;;;;13.17;9.10;;;17.80;99.90;;;;;;5117318;27;20435;-72
2022/10/01 01:19:13;;;;;;;8.77;7.97;;;17.80;99.90;;;;;;5136146;27;20439;-72
2022/10/01 01:21:45;;;;;;;8.87;8.10;;;17.80;99.90;;;;;;5135734;27;20470;-73
2022/10/01 01:24:35;;;;;;;8.17;7.50;;;17.80;99.90;;;;;;5136152;27;20785;-71
2022/10/01 01:27:17;;;;;;;7.73;7.03;;;17.80;99.90;;;;;;5116946;27;20459;-72
2022/10/01 01:30:07;;;;;;;8.70;7.90;;;17.70;99.90;;;;;;5135447;27;20959;-72
2022/10/01 01:32:51;;;;;;;8.70;7.90;;;17.70;99.90;;;;;;5135590;27;20916;-73
2022/10/01 01:35:34;;;;;;;8.10;7.27;;;17.70;99.90;;;;;;5135464;27;20423;-74
2022/10/01 01:38:09;;;;;;;7.30;6.70;;;17.70;99.90;;;;;;5135458;27;20459;-73
2022/10/01 01:40:37;;;;;;;9.27;8.40;;;17.60;99.90;;;;;;5135293;27;20817;-72
2022/10/01 01:43:10;;;;;;;8.13;7.07;;;17.60;99.90;;;;;;5135071;27;20494;-71
2022/10/01 01:45:39;;;;;;;8.80;7.50;;;17.50;99.90;;;;;;5135187;27;20415;-74
2022/10/01 01:48:07;;;;;;;7.80;7.10;;;17.50;99.90;;;;;;5135449;27;20484;-73
2022/10/01 01:50:42;;;;;;;8.40;7.60;;;17.50;99.90;;;;;;5116811;27;20435;-72
2022/10/01 01:53:08;;;;;;;7.80;6.70;;;17.50;99.90;;;;;;5116830;27;20927;-72
2022/10/01 01:55:35;;;;;;;7.97;7.27;;;17.50;99.90;;;;;;5135018;27;20426;-72
2022/10/01 01:58:01;;;;;;;8.20;7.50;;;17.40;99.90;;;;;;5116671;27;20658;-71
2022/10/01 02:00:27;;;;;;;7.60;6.90;;;17.40;99.90;;;;;;5134942;27;20826;-72
2022/10/01 02:02:53;;;;;;;8.73;7.70;;;17.40;99.90;;;;;;5135037;27;20407;-72
2022/10/01 02:05:26;;;;;;;8.30;7.50;;;17.40;99.90;;;;;;5134786;27;20435;-72
2022/10/01 02:08:21;;;;;;;9.00;8.20;;;17.30;99.90;;;;;;5135110;27;20480;-73
2022/10/01 02:11:12;;;;;;;8.77;7.97;;;17.30;99.90;;;;;;5134898;27;20450;-72
2022/10/01 02:14:24;;;;;;;9.00;8.00;;;17.30;99.90;;;;;;5135194;27;20418;-71
2022/10/01 02:17:01;;;;;;;8.33;7.63;;;17.30;99.90;;;;;;5107897;28;20424;-72
2022/10/01 02:20:17;;;;;;;8.80;7.90;;;17.20;99.90;;;;;;5134785;27;20456;-72
2022/10/01 02:22:47;;;;;;;8.77;7.87;;;17.20;99.90;;;;;;5054740;28;20806;-71
2022/10/01 02:25:16;;;;;;;8.93;7.83;;;17.20;99.90;;;;;;5123784;28;20436;-72
2022/10/01 02:27:52;;;;;;;8.63;7.83;;;17.20;99.90;;;;;;5134708;28;20565;-72
2022/10/01 02:30:18;;;;;;;9.57;8.67;;;17.10;99.90;;;;;;5134659;28;20926;-72
2022/10/01 02:32:46;;;;;;;10.17;9.20;;;17.10;99.90;;;;;;5116315;28;20422;-73
2022/10/01 02:35:15;;;;;;;9.10;8.20;;;17.10;99.90;;;;;;5116104;28;20877;-74
2022/10/01 02:37:43;;;;;;;9.63;8.63;;;17.10;99.90;;;;;;5116269;28;20411;-74
2022/10/01 02:40:15;;;;;;;7.90;7.10;;;17.10;99.90;;;;;;5134426;28;20427;-72
2022/10/01 02:42:47;;;;;;;10.60;8.03;;;17.10;99.90;;;;;;5134114;28;20500;-71
2022/10/01 02:45:17;;;;;;;8.40;7.60;;;17.00;99.90;;;;;;5134312;28;20411;-72
2022/10/01 02:47:52;;;;;;;9.13;8.30;;;17.00;99.90;;;;;;5137538;27;20821;-71
2022/10/01 02:50:19;;;;;;;10.17;9.17;;;17.00;99.90;;;;;;5138475;27;20450;-72
2022/10/01 02:52:54;;;;;;;10.20;9.23;;;17.00;99.90;;;;;;5138717;27;20415;-72
2022/10/01 02:55:27;;;;;;;8.87;8.07;;;17.00;99.90;;;;;;5138516;27;20426;-73
2022/10/01 02:57:53;;;;;;;9.60;8.60;;;17.00;99.90;;;;;;5138388;27;20411;-73
2022/10/01 03:00:20;;;;;;;9.20;8.33;;;17.00;99.90;;;;;;5138325;27;20484;-73
2022/10/01 03:02:46;;;;;;;8.47;7.43;;;17.00;99.90;;;;;;5138520;27;20848;-72
2022/10/01 03:05:13;;;;;;;8.97;8.17;;;17.00;99.90;;;;;;5138088;27;20510;-74
2022/10/01 03:07:39;;;;;;;8.87;7.90;;;17.00;99.90;;;;;;5119952;27;20553;-73
2022/10/01 03:10:07;;;;;;;8.93;8.03;;;17.00;99.90;;;;;;5138133;27;20419;-73
2022/10/01 03:12:34;;;;;;;9.20;8.40;;;16.90;99.90;;;;;;5138166;27;20460;-71
2022/10/01 03:14:59;;;;;;;8.97;8.17;;;16.90;99.90;;;;;;5119580;27;20434;-72
2022/10/01 03:17:25;;;;;;;9.50;8.50;;;16.90;99.90;;;;;;5138107;27;20416;-71
2022/10/01 03:19:51;;;;;;;8.67;7.97;;;16.90;99.90;;;;;;5137949;27;20224;-72
2022/10/01 03:22:21;;;;;;;9.53;8.63;;;16.90;99.90;;;;;;5119448;27;21010;-72
2022/10/01 03:24:47;;;;;;;8.93;7.90;;;16.90;99.90;;;;;;5119376;27;20199;-71
2022/10/01 03:27:13;;;;;;;9.60;8.30;;;16.90;99.90;;;;;;5137642;27;20462;-73
2022/10/01 03:29:38;;;;;;;10.37;9.40;;;16.90;99.90;;;;;;5119268;27;20427;-72
2022/10/01 03:32:04;;;;;;;10.20;9.20;;;16.90;99.90;;;;;;5137641;27;20172;-71
2022/10/01 03:34:29;;;;;;;9.50;8.50;;;16.80;99.90;;;;;;5119298;27;20199;-74
2022/10/01 03:36:55;;;;;;;10.60;9.70;;;16.80;99.90;;;;;;5137601;27;20171;-73
2022/10/01 03:39:21;;;;;;;10.10;9.13;;;16.80;99.90;;;;;;5137566;27;20590;-72
2022/10/01 03:41:46;;;;;;;9.40;8.60;;;16.80;99.90;;;;;;5137626;27;20623;-72
2022/10/01 03:44:12;;;;;;;10.53;9.67;;;16.80;99.90;;;;;;5118885;27;20479;-74
2022/10/01 03:46:38;;;;;;;12.33;11.13;;;16.80;99.90;;;;;;5118978;27;20210;-72
2022/10/01 03:49:03;;;;;;;11.63;10.53;;;16.80;99.90;;;;;;5137881;27;20431;-74
2022/10/01 03:51:30;;;;;;;12.87;11.70;;;16.80;99.90;;;;;;5137224;27;20184;-72
2022/10/01 03:53:57;;;;;;;11.27;10.37;;;16.80;99.90;;;;;;5118733;27;20574;-74
2022/10/01 03:56:23;;;;;;;11.93;10.90;;;16.80;99.90;;;;;;5137245;27;20954;-74
2022/10/01 03:58:49;;;;;;;12.00;10.80;;;16.80;99.90;;;;;;5117612;27;20475;-73
2022/10/01 04:01:15;;;;;;;10.80;9.70;;;16.80;99.90;;;;;;5137094;27;20428;-72
2022/10/01 04:03:40;;;;;;;11.73;10.63;;;16.90;99.90;;;;;;5137547;27;20175;-72
2022/10/01 04:06:06;;;;;;;12.53;10.90;;;16.90;99.90;;;;;;5136955;27;20198;-73
2022/10/01 04:08:32;;;;;;;13.17;11.80;;;16.90;99.90;;;;;;5118945;27;20658;-74
2022/10/01 04:10:59;;;;;;;11.87;10.80;;;16.90;99.90;;;;;;5136948;27;20415;-72
2022/10/01 04:13:26;;;;;;;11.13;10.13;;;16.90;99.90;;;;;;5137162;27;20215;-73
2022/10/01 04:15:51;;;;;;;12.90;11.70;;;16.90;99.90;;;;;;5136801;27;20424;-72
2022/10/01 04:18:18;;;;;;;12.27;11.17;;;16.90;99.90;;;;;;5118584;27;20419;-73
2022/10/01 04:20:43;;;;;;;12.60;11.60;;;16.90;99.90;;;;;;5136831;27;20681;-73
2022/10/01 04:23:09;;;;;;;14.23;12.93;;;16.90;99.90;;;;;;5118402;27;20521;-72
2022/10/01 04:25:35;;;;;;;14.63;13.20;;;16.90;99.90;;;;;;5136659;27;20186;-72
2022/10/01 04:28:03;;;;;;;13.97;12.67;;;16.90;99.90;;;;;;5136737;27;20223;-72
2022/10/01 04:30:32;;;;;;;16.23;13.50;;;16.90;99.90;;;;;;5136699;27;20591;-74
2022/10/01 04:32:58;;;;;;;14.30;13.00;;;16.90;99.90;;;;;;5136593;27;20408;-73
2022/10/01 04:35:24;;;;;;;14.77;13.37;;;16.90;99.90;;;;;;5136523;27;20522;-73
2022/10/01 04:38:05;;;;;;;13.83;12.30;;;16.90;99.90;;;;;;5136679;27;20184;-72
2022/10/01 04:40:34;;;;;;;14.03;12.63;;;16.90;99.90;;;;;;5136395;27;20504;-72
2022/10/01 04:43:04;;;;;;;14.23;13.03;;;16.90;99.90;;;;;;5117752;27;20471;-72
2022/10/01 04:45:30;;;;;;;14.10;12.90;;;16.90;99.90;;;;;;5136260;27;20517;-74
2022/10/01 04:47:57;;;;;;;15.93;14.33;;;16.90;99.90;;;;;;5136310;27;20472;-74
2022/10/01 04:50:24;;;;;;;17.23;15.60;;;16.90;99.90;;;;;;5117832;27;20484;-72
2022/10/01 04:52:51;;;;;;;15.90;14.40;;;16.90;99.90;;;;;;5136254;27;20879;-74
2022/10/01 04:55:17;;;;;;;15.90;14.40;;;16.90;99.90;;;;;;5136078;27;20430;-73
2022/10/01 04:57:43;;;;;;;15.37;13.87;;;17.00;99.90;;;;;;5135939;27;20900;-73
2022/10/01 05:00:12;;;;;;;16.03;14.43;;;17.00;99.90;;;;;;5135810;27;20515;-73
2022/10/01 05:02:37;;;;;;;18.43;16.60;;;17.00;99.90;;;;;;5136199;27;20685;-72
2022/10/01 05:05:05;;;;;;;17.97;15.37;;;17.00;99.90;;;;;;5135858;27;20427;-72
2022/10/01 05:07:31;;;;;;;18.70;16.83;;;17.00;99.90;;;;;;5135581;27;20295;-72
2022/10/01 05:09:59;;;;;;;18.57;16.57;;;17.00;99.90;;;;;;5116808;27;20545;-72
2022/10/01 05:12:25;;;;;;;28.33;17.73;;;17.10;99.90;;;;;;5135905;27;20457;-73
2022/10/01 05:14:57;;;;;;;17.43;15.73;;;17.10;99.90;;;;;;5135609;27;20434;-72
2022/10/01 05:17:23;;;;;;;18.50;16.90;;;17.10;99.90;;;;;;5117347;27;20425;-71
2022/10/01 05:19:49;;;;;;;20.17;16.80;;;17.10;99.90;;;;;;5135508;27;20996;-71
2022/10/01 05:22:15;;;;;;;16.60;15.00;;;17.10;99.90;;;;;;5135434;27;20404;-72
2022/10/01 05:24:42;;;;;;;15.50;14.00;;;17.10;99.90;;;;;;5135476;27;20427;-71
2022/10/01 05:27:12;;;;;;;14.43;13.10;;;17.10;99.90;;;;;;5135309;27;20461;-72
2022/10/01 05:29:40;;;;;;;15.43;13.93;;;17.10;99.90;;;;;;5135492;27;20468;-73
2022/10/01 05:32:08;;;;;;;16.77;15.27;;;17.10;99.90;;;;;;5115818;27;20940;-71
2022/10/01 05:34:34;;;;;;;15.97;14.47;;;17.10;99.90;;;;;;5135281;27;20419;-73
2022/10/01 05:37:01;;;;;;;16.10;14.10;;;17.10;99.90;;;;;;5135158;27;20806;-74
2022/10/01 05:39:27;;;;;;;16.37;14.90;;;17.10;99.90;;;;;;5134382;27;20400;-73
2022/10/01 05:41:54;;;;;;;15.63;14.13;;;17.20;99.90;;;;;;5116777;27;20463;-71
2022/10/01 05:44:23;;;;;;;16.20;14.67;;;17.20;99.90;;;;;;5115089;27;20536;-74
2022/10/01 05:46:49;;;;;;;15.50;14.00;;;17.20;99.90;;;;;;5134895;27;20466;-72
2022/10/01 05:49:16;;;;;;;17.13;15.40;;;17.20;99.90;;;;;;5133244;27;20498;-71
2022/10/01 05:51:42;;;;;;;17.73;16.10;;;17.20;99.90;;;;;;5132895;27;20410;-74
2022/10/01 05:54:09;;;;;;;16.13;14.53;;;17.30;99.90;;;;;;5133264;27;20468;-74
2022/10/01 05:56:35;;;;;;;18.33;16.40;;;17.30;99.90;;;;;;5132757;27;20427;-73
2022/10/01 05:59:01;;;;;;;16.40;14.80;;;17.30;99.90;;;;;;5133295;27;20899;-72
2022/10/01 06:01:27;;;;;;;16.07;14.57;;;17.30;99.90;;;;;;5114250;27;20437;-72
2022/10/01 06:03:53;;;;;;;16.23;14.60;;;17.30;99.90;;;;;;5134228;27;20195;-72
2022/10/01 06:06:25;;;;;;;16.83;15.20;;;17.40;99.90;;;;;;5116224;27;20503;-73
2022/10/01 06:08:51;;;;;;;19.20;14.90;;;17.40;99.90;;;;;;5135350;27;20250;-72
2022/10/01 06:11:18;;;;;;;17.77;16.00;;;17.40;99.90;;;;;;5116202;27;20427;-73
2022/10/01 06:13:45;;;;;;;16.40;14.90;;;17.40;99.90;;;;;;5135150;27;20434;-73
2022/10/01 06:16:12;;;;;;;15.87;14.33;;;17.40;99.90;;;;;;5134579;27;20536;-71
2022/10/01 06:18:38;;;;;;;15.20;13.70;;;17.50;99.90;;;;;;5135123;27;20529;-72
2022/10/01 06:21:04;;;;;;;14.90;13.50;;;17.50;99.90;;;;;;5133648;27;20443;-72
2022/10/01 06:23:30;;;;;;;20.33;14.70;;;17.50;99.90;;;;;;5135053;28;20416;-72
2022/10/01 06:25:57;;;;;;;16.10;14.50;;;17.60;99.90;;;;;;5134411;28;20554;-71
2022/10/01 06:28:23;;;;;;;16.03;14.43;;;17.60;99.90;;;;;;5135008;28;20627;-72
2022/10/01 06:30:48;;;;;;;17.60;15.90;;;17.60;99.90;;;;;;5134589;28;20434;-73
2022/10/01 06:33:16;;;;;;;16.90;15.03;;;17.60;99.90;;;;;;5116233;28;20189;-72
2022/10/01 06:35:49;;;;;;;17.43;15.73;;;17.70;99.90;;;;;;5134510;28;20188;-73
2022/10/01 06:38:16;;;;;;;17.80;16.07;;;17.80;99.90;;;;;;5134835;28;20427;-72
2022/10/01 06:40:42;;;;;;;17.93;15.30;;;17.80;99.90;;;;;;5116023;28;20432;-72
2022/10/01 06:43:08;;;;;;;17.83;15.93;;;17.80;99.90;;;;;;5134417;28;20516;-72
2022/10/01 06:45:42;;;;;;;17.37;15.17;;;17.90;99.90;;;;;;5115937;28;20462;-74
2022/10/01 06:48:13;;;;;;;17.17;15.37;;;18.00;99.90;;;;;;5134602;28;20477;-72
2022/10/01 06:50:39;;;;;;;17.87;16.13;;;18.00;99.90;;;;;;5134555;28;20895;-73
2022/10/01 06:53:05;;;;;;;15.63;14.03;;;18.10;99.90;;;;;;5134581;27;20414;-72
2022/10/01 06:55:33;;;;;;;15.57;14.07;;;18.20;99.90;;;;;;5134468;28;20428;-71
2022/10/01 06:58:01;;;;;;;15.13;13.73;;;18.20;99.90;;;;;;5115897;28;20172;-74
2022/10/01 07:00:29;;;;;;;14.43;13.00;;;18.30;99.90;;;;;;5134300;28;20440;-74
2022/10/01 07:02:54;;;;;;;14.23;12.83;;;18.30;99.90;;;;;;5134474;28;20417;-74
2022/10/01 07:05:21;;;;;;;15.80;14.20;;;18.40;99.90;;;;;;5134331;28;20428;-72
2022/10/01 07:07:47;;;;;;;14.13;12.73;;;18.50;99.90;;;;;;5134338;28;20516;-74
2022/10/01 07:10:19;;;;;;;15.23;13.63;;;18.50;99.90;;;;;;5134271;28;20454;-72
2022/10/01 07:12:47;;;;;;;14.70;13.30;;;18.60;99.90;;;;;;5134446;28;20412;-74
2022/10/01 07:15:14;;;;;;;15.10;13.03;;;18.70;99.90;;;;;;5134060;28;20424;-73
2022/10/01 07:17:45;;;;;;;15.60;14.07;;;18.80;99.90;;;;;;5134310;28;20425;-74
2022/10/01 07:20:13;;;;;;;15.53;12.97;;;18.90;99.90;;;;;;5134030;28;20496;-74
2022/10/01 07:22:39;;;;;;;15.80;13.93;;;18.90;99.90;;;;;;5134359;27;20472;-72
2022/10/01 07:25:05;;;;;;;14.17;12.87;;;19.10;99.90;;;;;;5115538;28;20446;-72
2022/10/01 07:27:32;;;;;;;12.80;11.50;;;19.10;99.90;;;;;;5115683;28;20530;-72
2022/10/01 07:29:58;;;;;;;12.40;11.20;;;19.20;99.90;;;;;;5133971;28;20453;-74
2022/10/01 07:32:24;;;;;;;11.73;10.27;;;19.40;99.90;;;;;;5134714;27;20965;-74
2022/10/01 07:34:50;;;;;;;11.70;10.70;;;19.50;99.90;;;;;;5137785;27;20272;-72
2022/10/01 07:37:16;;;;;;;9.10;8.20;;;19.60;99.90;;;;;;5119238;27;20865;-72
2022/10/01 07:39:42;;;;;;;9.30;8.50;;;19.70;99.90;;;;;;5137647;27;20242;-72
2022/10/01 07:42:07;;;;;;;11.17;9.00;;;19.80;99.90;;;;;;5137572;27;20844;-73
2022/10/01 07:44:33;;;;;;;9.20;8.30;;;19.80;99.90;;;;;;5137631;27;20233;-73
2022/10/01 07:46:59;;;;;;;9.20;8.27;;;19.90;99.90;;;;;;5137300;27;20670;-73
2022/10/01 07:49:25;;;;;;;8.93;7.40;;;19.90;99.90;;;;;;5137460;27;20251;-72
2022/10/01 07:51:52;;;;;;;9.63;7.93;;;20.00;99.90;;;;;;5137423;27;20402;-73
2022/10/01 07:54:19;;;;;;;8.33;7.53;;;20.10;99.90;;;;;;5137813;27;20174;-74
2022/10/01 07:56:44;;;;;;;9.43;6.97;;;20.20;99.90;;;;;;5118647;27;20446;-72
2022/10/01 07:59:10;;;;;;;7.90;7.20;;;20.40;99.90;;;;;;5137229;27;20869;-74
2022/10/01 08:01:36;;;;;;;7.33;6.70;;;20.60;99.90;;;;;;5136444;27;20201;-74
2022/10/01 08:05:16;;;;;;;6.47;5.80;;;20.90;99.90;;;;;;5137700;27;20178;-74
2022/10/01 08:06:51;;;;;;;7.70;6.27;;;21.10;99.90;;;;;;5136887;27;20557;-72
2022/10/01 08:09:17;;;;;;;8.70;6.67;;;21.50;99.90;;;;;;5118845;27;20518;-72
2022/10/01 08:11:44;;;;;;;8.27;6.73;;;21.70;99.90;;;;;;5137006;27;20491;-72
2022/10/01 08:14:10;;;;;;;6.23;5.67;;;21.90;99.90;;;;;;5135557;27;20232;-72
2022/10/01 08:16:38;;;;;;;7.13;6.47;;;21.90;99.90;;;;;;5116305;27;20830;-74
2022/10/01 08:19:04;;;;;;;6.73;6.13;;;22.00;99.90;;;;;;5116506;27;20415;-75
2022/10/01 08:21:30;;;;;;;9.17;7.43;;;21.90;99.90;;;;;;5134699;27;20415;-75
2022/10/01 08:23:55;;;;;;;7.40;6.70;;;21.80;99.90;;;;;;5134536;27;20422;-74
2022/10/01 08:26:21;;;;;;;7.07;6.37;;;21.80;99.90;;;;;;5134479;27;20204;-74
2022/10/01 08:28:47;;;;;;;8.63;6.17;;;21.70;99.90;;;;;;5136198;27;20182;-72
2022/10/01 08:31:12;;;;;;;8.73;6.97;;;21.60;99.90;;;;;;5136647;27;20260;-72
2022/10/01 08:33:38;;;;;;;13.90;7.07;;;21.60;99.90;;;;;;5136615;27;20179;-73
2022/10/01 08:36:08;;;;;;;6.93;6.27;;;21.60;99.90;;;;;;5136537;27;20193;-72
2022/10/01 08:38:34;;;;;;;7.60;6.90;;;21.70;99.90;;;;;;5118323;27;20240;-74
2022/10/01 08:41:17;;;;;;;8.53;5.73;;;21.90;99.90;;;;;;5117971;27;20430;-72
2022/10/01 08:43:43;;;;;;;5.63;5.13;;;22.10;99.90;;;;;;5135798;27;20447;-73
2022/10/01 08:46:15;;;;;;;10.50;5.90;;;22.40;99.90;;;;;;5135903;27;20502;-73
2022/10/01 08:48:57;;;;;;;6.83;5.63;;;22.70;99.90;;;;;;5136802;27;20931;-72
2022/10/01 08:51:29;;;;;;;8.00;6.00;;;22.90;99.90;;;;;;5136368;27;20470;-72
2022/10/01 08:54:07;;;;;;;6.47;5.37;;;23.10;99.90;;;;;;5118119;27;20443;-72
2022/10/01 08:56:40;;;;;;;5.37;4.87;;;23.20;99.90;;;;;;5117697;27;20774;-74
2022/10/01 08:59:21;;;;;;;5.73;4.50;;;23.20;99.90;;;;;;5117979;27;20424;-72
2022/10/01 09:01:48;;;;;;;7.23;4.70;;;23.20;99.90;;;;;;5117665;27;20970;-72
2022/10/01 09:04:14;;;;;;;6.33;5.30;;;23.20;99.90;;;;;;5135826;27;20825;-72
2022/10/01 09:06:39;;;;;;;5.07;4.50;;;23.10;99.90;;;;;;5135896;27;20529;-72
2022/10/01 09:09:35;;;;;;;5.40;4.30;;;23.00;99.90;;;;;;5136369;27;20436;-74
2022/10/01 09:12:22;;;;;;;5.27;4.53;;;23.00;99.90;;;;;;5135803;27;20246;-72
2022/10/01 09:15:19;;;;;;;6.23;4.70;;;22.80;99.90;;;;;;5135908;27;20926;-72
2022/10/01 09:18:27;;;;;;;6.53;4.63;;;22.70;99.90;;;;;;5117384;27;20451;-74
2022/10/01 09:20:59;;;;;;;6.77;6.10;;;22.60;99.90;;;;;;5117157;27;20445;-73
2022/10/01 09:23:30;;;;;;;7.70;4.90;;;22.50;99.90;;;;;;5117222;27;20427;-72
2022/10/01 09:25:58;;;;;;;5.53;4.67;;;22.50;99.90;;;;;;5135569;27;20987;-74
2022/10/01 09:28:28;;;;;;;5.00;4.30;;;22.40;99.90;;;;;;5117272;27;20443;-72
2022/10/01 09:31:05;;;;;;;4.80;3.90;;;22.40;99.90;;;;;;5135456;27;20454;-72
2022/10/01 09:33:35;;;;;;;4.80;4.03;;;22.30;99.90;;;;;;5135876;27;20829;-74
2022/10/01 09:36:27;;;;;;;7.10;5.03;;;22.30;99.90;;;;;;5135291;27;20978;-74
2022/10/01 09:39:23;;;;;;;5.43;4.37;;;22.30;99.90;;;;;;5105958;27;20844;-74
2022/10/01 09:41:48;;;;;;;6.60;5.57;;;22.30;99.90;;;;;;5117023;27;20949;-74
2022/10/01 09:44:19;;;;;;;5.30;4.73;;;22.30;99.90;;;;;;5116823;27;20478;-72
2022/10/01 09:46:46;;;;;;;5.97;4.20;;;22.30;99.90;;;;;;5135402;27;20199;-72
2022/10/01 09:49:26;;;;;;;5.70;4.50;;;22.40;99.90;;;;;;5135643;27;20452;-72
2022/10/01 09:51:56;;;;;;;5.07;4.57;;;22.50;99.90;;;;;;5116693;27;20496;-72
2022/10/01 09:54:41;;;;;;;6.23;4.67;;;22.50;99.90;;;;;;5135389;27;20411;-74
2022/10/01 09:57:12;;;;;;;5.07;4.60;;;22.50;99.90;;;;;;5135048;27;20418;-74
2022/10/01 09:59:59;;;;;;;5.53;5.00;;;22.50;99.90;;;;;;5116665;27;20475;-74
2022/10/01 10:02:30;;;;;;;7.33;5.40;;;22.50;99.90;;;;;;5135136;27;20467;-72
2022/10/01 10:05:00;;;;;;;5.43;4.93;;;22.50;99.90;;;;;;5116527;27;20434;-74
2022/10/01 10:07:28;;;;;;;6.30;5.70;;;22.50;99.90;;;;;;5134969;27;20462;-73
2022/10/01 10:09:54;;;;;;;6.43;5.70;;;22.60;99.90;;;;;;5134899;27;20459;-72
2022/10/01 10:12:29;;;;;;;6.20;5.07;;;22.60;99.90;;;;;;5135018;27;20814;-74
2022/10/01 10:14:57;;;;;;;7.27;5.00;;;22.60;99.90;;;;;;5134887;27;20432;-74
2022/10/01 10:17:24;;;;;;;5.40;4.83;;;22.60;99.90;;;;;;5134969;27;20435;-72
2022/10/01 10:19:51;;;;;;;6.43;5.40;;;22.60;99.90;;;;;;5134754;27;20445;-72
2022/10/01 10:22:27;;;;;;;5.80;5.20;;;22.60;99.90;;;;;;5134658;27;20511;-72
2022/10/01 10:24:57;;;;;;;10.03;5.60;;;22.70;99.90;;;;;;5134684;27;20450;-74
2022/10/01 10:27:26;;;;;;;5.07;4.57;;;22.70;99.90;;;;;;5134803;27;20571;-73
2022/10/01 10:30:03;;;;;;;7.77;5.17;;;22.70;99.90;;;;;;5134620;28;20422;-74
2022/10/01 10:32:29;;;;;;;5.27;4.27;;;22.80;99.90;;;;;;5116293;28;20432;-72
2022/10/01 10:35:04;;;;;;;4.87;4.33;;;22.80;99.90;;;;;;5134524;28;20475;-73
2022/10/01 10:37:34;;;;;;;4.60;4.20;;;22.80;99.90;;;;;;5134876;28;20411;-74
2022/10/01 10:40:01;;;;;;;4.83;4.43;;;22.80;99.90;;;;;;5116109;28;20427;-72
2022/10/01 10:42:27;;;;;;;4.77;4.13;;;22.80;99.90;;;;;;5134348;28;20416;-72
2022/10/01 10:44:59;;;;;;;5.90;4.60;;;22.90;99.90;;;;;;5115821;28;20465;-74
2022/10/01 10:47:30;;;;;;;4.93;4.43;;;22.90;99.90;;;;;;5134505;27;20501;-74
2022/10/01 10:50:02;;;;;;;5.10;4.40;;;22.90;99.90;;;;;;5134439;28;20436;-72
2022/10/01 10:52:36;;;;;;;6.07;4.80;;;23.00;99.90;;;;;;5134574;28;20413;-72
2022/10/01 10:55:21;;;;;;;7.73;5.30;;;23.00;99.90;;;;;;5134349;28;20416;-73
2022/10/01 10:57:47;;;;;;;6.33;4.90;;;23.00;99.90;;;;;;5134625;27;20852;-74
2022/10/01 11:00:22;;;;;;;4.57;4.17;;;23.00;99.90;;;;;;5115894;28;20474;-71
2022/10/01 11:02:58;;;;;;;7.53;5.33;;;23.00;99.90;;;;;;5116117;28;20193;-72
2022/10/01 11:05:28;;;;;;;8.30;4.83;;;23.00;99.90;;;;;;5134650;28;20425;-72
2022/10/01 11:07:58;;;;;;;7.80;5.10;;;23.00;99.90;;;;;;5136172;27;20545;-72
2022/10/01 11:10:27;;;;;;;6.70;5.00;;;23.00;99.90;;;;;;5138224;27;20425;-72
2022/10/01 11:13:17;;;;;;;6.13;5.53;;;22.90;99.90;;;;;;5119779;27;20984;-72
2022/10/01 11:16:16;;;;;;;5.80;5.30;;;22.90;99.90;;;;;;5120192;27;20951;-74
2022/10/01 11:19:00;;;;;;;12.77;5.10;;;22.80;99.90;;;;;;5138377;27;20477;-72
2022/10/01 11:21:27;;;;;;;9.40;6.70;;;22.70;99.90;;;;;;5137904;27;20426;-73
2022/10/01 11:24:18;;;;;;;5.60;5.10;;;22.60;99.90;;;;;;5119619;27;20430;-74
2022/10/01 11:27:13;;;;;;;6.33;5.83;;;22.50;99.90;;;;;;5135924;27;20507;-71
2022/10/01 11:30:00;;;;;;;7.93;6.93;;;22.30;99.90;;;;;;5095365;27;20444;-72
2022/10/01 11:32:44;;;;;;;24.70;19.77;;;22.20;99.90;;;;;;5119541;27;20449;-74
2022/10/01 11:35:13;;;;;;;101.13;69.30;;;22.00;99.90;;;;;;5108703;27;20529;-72
2022/10/01 11:37:54;;;;;;;50.70;46.30;;;21.90;99.90;;;;;;5117215;28;20427;-74
2022/10/01 11:40:41;;;;;;;13.37;10.37;;;21.80;99.90;;;;;;5117381;28;20423;-72
2022/10/01 11:43:35;;;;;;;10.23;8.87;;;21.70;99.90;;;;;;5098676;28;20468;-72
2022/10/01 11:46:47;;;;;;;8.50;7.60;;;21.60;99.90;;;;;;5116954;28;20484;-74
2022/10/01 11:49:23;;;;;;;5.53;4.97;;;21.50;99.90;;;;;;5099072;28;20820;-74
2022/10/01 11:52:13;;;;;;;6.93;6.23;;;21.40;99.90;;;;;;5136928;27;20523;-72
2022/10/01 11:54:53;;;;;;;9.73;6.70;;;21.30;99.90;;;;;;5137478;27;20419;-73
2022/10/01 12:00:10;;;;;;;6.83;6.23;;;21.20;99.90;;;;;;5137106;27;20483;-72
2022/10/01 12:02:54;;;;;;;6.47;5.77;;;21.10;99.90;;;;;;5118517;27;20423;-73
2022/10/01 12:05:24;;;;;;;21.60;15.40;;;21.00;99.90;;;;;;5118520;27;20447;-74
2022/10/01 12:08:03;;;;;;;32.93;24.37;;;21.00;99.90;;;;;;5118637;27;20558;-72
2022/10/01 12:10:33;;;;;;;10.30;9.00;;;20.90;99.90;;;;;;5118636;27;20508;-74
2022/10/01 12:13:21;;;;;;;13.00;11.00;;;20.90;99.90;;;;;;5137142;27;20446;-74
2022/10/01 12:16:05;;;;;;;19.77;14.77;;;20.80;99.90;;;;;;5118572;27;20439;-76
2022/10/01 12:18:58;;;;;;;25.83;18.37;;;20.80;99.90;;;;;;5118124;28;20435;-74
2022/10/01 12:21:36;;;;;;;10.37;9.27;;;20.70;99.90;;;;;;5118494;27;20470;-73
2022/10/01 12:24:04;;;;;;;5.87;5.37;;;20.70;99.90;;;;;;5118410;27;20427;-73
2022/10/01 12:26:33;;;;;;;6.47;4.87;;;20.60;99.90;;;;;;5118155;27;20465;-74
2022/10/01 12:29:35;;;;;;;5.13;4.63;;;20.60;99.90;;;;;;5136529;27;20446;-73
2022/10/01 12:32:49;;;;;;;8.13;5.07;;;20.60;99.90;;;;;;5136489;27;20406;-75
2022/10/01 12:35:41;;;;;;;5.83;5.23;;;20.50;99.90;;;;;;5036453;28;20434;-75
2022/10/01 12:38:18;;;;;;;6.80;6.17;;;20.50;99.90;;;;;;5028965;28;20434;-74
2022/10/01 12:41:13;;;;;;;8.10;7.40;;;20.40;99.90;;;;;;5113269;27;20442;-73
2022/10/01 12:43:49;;;;;;;10.60;7.17;;;20.40;99.90;;;;;;5136355;27;20796;-74
2022/10/01 12:46:26;;;;;;;7.53;6.70;;;20.30;99.90;;;;;;5135670;27;20532;-75
2022/10/01 12:49:10;;;;;;;6.67;5.80;;;20.20;99.90;;;;;;5117917;27;20512;-72
2022/10/01 12:51:51;;;;;;;6.93;6.33;;;20.00;99.90;;;;;;5134066;27;20434;-75
2022/10/01 12:54:48;;;;;;;10.27;8.57;;;19.90;99.90;;;;;;5136424;27;20468;-73
2022/10/01 12:57:36;;;;;;;14.00;9.23;;;19.80;99.90;;;;;;5136015;27;20419;-75
2022/10/01 13:00:23;;;;;;;10.27;6.90;;;19.70;99.90;;;;;;5117610;27;20496;-72
2022/10/01 13:03:23;;;;;;;11.80;8.70;;;19.50;99.90;;;;;;5135694;27;20505;-74
2022/10/01 13:05:58;;;;;;;10.20;7.77;;;19.40;99.90;;;;;;5134225;27;20481;-74